METAR

ENBN 230620Z 25004KT 9999 VCSH FEW020CB SCT028 BKN130 06/03 Q1004

ENMS 230620Z 20004KT 160V240 9999 -SHRA VCFG FEW018 BKN027 04/02 Q1004 RMK WIND 412FT 19004KT 160

ENNM 230620Z VRB05KT 9999 -RA BKN049 05/02 Q1005

ENOL 230620Z 09009KT 9999 -RADZ FEW008 SCT035 BKN050 04/03 Q1004 NOSIG

ENST 230620Z 29004KT 230V340 9999 FEW025 SCT050 BKN150 06/01 Q1003 RMK WIND 300FT 31006KT

ENVA 230620Z 11007KT 9999 BKN045 04/02 Q1005 NOSIG RMK WIND 670FT 10006KT



TAF

TAF ENVA 230500Z 2306/2406 13007KT 9999 -RA FEW020 BKN040